createdAt,value
2023-04-12T00:00:49.788Z,63.72
2023-04-12T00:01:49.822Z,65.46
2023-04-12T00:02:49.839Z,66.48
2023-04-12T00:03:49.842Z,70.37
2023-04-12T00:04:49.859Z,67.81
2023-04-12T00:05:49.763Z,64.23
2023-04-12T00:06:49.716Z,73.33
2023-04-12T00:07:49.725Z,67.19
2023-04-12T00:08:49.699Z,64.84
2023-04-12T00:09:49.698Z,66.58
2023-04-12T00:10:49.679Z,64.74
2023-04-12T00:11:49.701Z,62.80
2023-04-12T00:12:49.715Z,68.22
2023-04-12T00:13:49.666Z,73.03
2023-04-12T00:14:49.677Z,72.31
2023-04-12T00:15:49.679Z,66.28
2023-04-12T00:16:49.613Z,66.17
2023-04-12T00:17:49.711Z,67.19
2023-04-12T00:18:49.594Z,72.00
2023-04-12T00:19:49.597Z,68.84
2023-04-12T00:20:49.576Z,71.19
2023-04-12T00:21:49.576Z,67.91
2023-04-12T00:22:49.555Z,70.88
2023-04-12T00:23:49.575Z,71.49
2023-04-12T00:24:49.526Z,66.07
2023-04-12T00:25:49.549Z,66.89
2023-04-12T00:26:49.500Z,68.12
2023-04-12T00:27:49.569Z,69.14
2023-04-12T00:28:49.486Z,66.28
2023-04-12T00:29:49.492Z,67.10
2023-04-12T00:30:49.463Z,68.73
2023-04-12T00:31:49.489Z,66.38
2023-04-12T00:32:49.498Z,74.35
2023-04-12T00:33:49.482Z,69.24
2023-04-12T00:34:49.430Z,71.90
2023-04-12T00:35:49.465Z,69.24
2023-04-12T00:36:49.403Z,72.41
2023-04-12T00:37:49.413Z,70.98
2023-04-12T00:38:49.385Z,73.03
2023-04-12T00:39:49.401Z,71.39
2023-04-12T00:40:49.376Z,70.06
2023-04-12T00:41:49.380Z,71.90
2023-04-12T00:42:49.401Z,71.59
2023-04-12T00:43:49.348Z,68.52
2023-04-12T00:44:49.313Z,73.74
2023-04-12T00:45:49.333Z,71.53
2023-04-12T00:46:49.355Z,71.94
2023-04-12T00:47:49.305Z,73.06
2023-04-12T00:48:49.273Z,68.87
2023-04-12T00:49:49.275Z,71.22
2023-04-12T00:50:49.258Z,68.15
2023-04-12T00:51:49.250Z,67.23
2023-04-12T00:52:49.251Z,70.50
2023-04-12T00:53:49.262Z,68.05
2023-04-12T00:54:49.208Z,68.05
2023-04-12T00:55:49.214Z,70.40
2023-04-12T00:56:49.189Z,70.40
2023-04-12T00:57:49.202Z,73.06
2023-04-12T00:58:49.183Z,69.68
2023-04-12T00:59:49.188Z,71.32
2023-04-12T01:00:49.212Z,77.46
2023-04-12T01:01:49.202Z,73.27
2023-04-12T01:02:49.240Z,73.47
2023-04-12T01:03:49.236Z,72.14
2023-04-12T01:04:49.111Z,75.31
2023-04-12T01:05:49.093Z,73.98
2023-04-12T01:06:49.145Z,76.13
2023-04-12T01:07:49.079Z,75.65
2023-04-12T01:08:49.087Z,76.47
2023-04-12T01:09:49.058Z,75.04
2023-04-12T01:10:49.053Z,76.68
2023-04-12T01:11:49.040Z,79.44
2023-04-12T01:12:49.029Z,76.57
2023-04-12T01:13:49.015Z,78.93
2023-04-12T01:14:49.017Z,80.81
2023-04-12T01:15:48.995Z,79.68
2023-04-12T01:16:49.047Z,80.81
2023-04-12T01:17:49.025Z,79.89
2023-04-12T01:18:48.993Z,81.12
2023-04-12T01:19:48.940Z,81.01
2023-04-12T01:20:48.940Z,81.52
2023-04-12T01:21:48.930Z,80.09
2023-04-12T01:22:48.933Z,79.58
2023-04-12T01:23:48.906Z,83.47
2023-04-12T01:24:48.897Z,83.37
2023-04-12T01:25:48.906Z,84.12
2023-04-12T01:26:48.878Z,83.82
2023-04-12T01:27:48.870Z,83.92
2023-04-12T01:28:48.878Z,84.53
2023-04-12T01:29:48.830Z,83.00
2023-04-12T06:00:39.934Z,97.78
2023-04-12T06:01:40.877Z,97.37
2023-04-12T06:02:41.595Z,97.47
2023-04-12T06:03:40.948Z,96.75
2023-04-12T06:04:50.180Z,97.57
2023-04-12T06:05:40.850Z,97.57
2023-04-12T06:06:40.817Z,98.39
2023-04-12T06:07:40.791Z,98.80
2023-04-12T06:08:40.818Z,98.19
2023-04-12T06:09:40.775Z,97.88
2023-04-12T06:10:40.781Z,98.50
2023-04-12T06:11:40.753Z,98.50
2023-04-12T06:12:40.750Z,98.70
2023-04-12T06:13:40.725Z,99.32
2023-04-12T06:14:40.753Z,98.91
2023-04-12T06:15:41.377Z,98.80
2023-04-12T06:16:42.006Z,99.42
2023-04-12T06:17:40.724Z,99.21
2023-04-12T06:18:40.700Z,99.01
2023-04-12T06:19:40.701Z,99.11
2023-04-12T06:20:40.737Z,98.60
2023-04-12T06:21:40.659Z,99.01
2023-04-12T06:22:40.652Z,99.32
2023-04-12T06:23:40.632Z,99.52
2023-04-12T06:24:40.644Z,98.80
2023-04-12T06:25:40.634Z,98.39
2023-04-12T06:26:40.602Z,98.39
2023-04-12T06:27:40.576Z,98.91
2023-04-12T06:28:40.591Z,99.01
2023-04-12T06:29:40.566Z,99.11
2023-04-12T06:30:40.690Z,98.70
2023-04-12T06:31:40.607Z,98.91
2023-04-12T06:32:40.562Z,99.32
2023-04-12T06:33:40.566Z,99.42
2023-04-12T06:34:40.519Z,99.83
2023-04-12T06:35:40.522Z,99.93
2023-04-12T06:36:40.491Z,99.93
2023-04-12T06:37:40.465Z,99.63
2023-04-12T06:38:42.102Z,99.63
2023-04-12T06:39:40.438Z,99.63
2023-04-12T06:40:40.444Z,99.73
2023-04-12T06:41:40.437Z,99.11
2023-04-12T06:42:40.431Z,99.11
2023-04-12T06:43:40.399Z,98.80
2023-04-12T06:44:40.428Z,98.39
2023-04-12T06:45:40.391Z,98.70
2023-04-12T06:46:40.389Z,99.01
2023-04-12T06:47:40.388Z,98.80
2023-04-12T06:48:41.367Z,99.32
2023-04-12T06:49:40.339Z,98.80
2023-04-12T06:50:40.377Z,99.42
2023-04-12T06:51:40.307Z,99.21
2023-04-12T06:52:40.362Z,99.63
2023-04-12T06:53:40.296Z,99.38
2023-04-12T06:54:40.308Z,99.99
2023-04-12T06:55:40.267Z,99.99
2023-04-12T06:56:40.271Z,99.99
2023-04-12T06:57:40.248Z,99.99
2023-04-12T06:58:40.278Z,99.99
2023-04-12T06:59:40.278Z,99.99
2023-04-12T07:00:40.273Z,99.99
2023-04-12T07:01:41.371Z,99.99
2023-04-12T07:02:40.468Z,99.99
2023-04-12T07:03:40.266Z,99.99
2023-04-12T07:04:40.201Z,99.99
2023-04-12T07:05:40.205Z,99.99
2023-04-12T07:06:40.173Z,99.99
2023-04-12T07:07:40.134Z,99.99
2023-04-12T07:08:40.155Z,99.99
2023-04-12T07:09:40.121Z,99.99
2023-04-12T07:10:40.151Z,99.99
2023-04-12T07:11:40.096Z,99.99
2023-04-12T07:12:40.108Z,99.99
2023-04-12T07:13:40.079Z,99.99
2023-04-12T07:14:40.102Z,99.99
2023-04-12T07:15:40.122Z,99.99
2023-04-12T07:16:40.104Z,99.89
2023-04-12T07:17:40.083Z,99.99
2023-04-12T07:18:40.120Z,99.99
2023-04-12T07:19:40.005Z,99.48
2023-04-12T07:20:40.037Z,99.38
2023-04-12T07:21:40.016Z,99.99
2023-04-12T07:22:40.028Z,99.99
2023-04-12T07:23:39.965Z,99.99
2023-04-12T07:24:39.983Z,99.99
2023-04-12T07:25:39.948Z,99.99
2023-04-12T07:26:39.961Z,99.99
2023-04-12T07:27:39.950Z,99.99
2023-04-12T07:28:39.952Z,99.99
2023-04-12T07:29:39.937Z,99.99
2023-04-12T07:30:39.942Z,99.99
2023-04-12T07:31:39.895Z,99.99
2023-04-12T07:32:39.955Z,99.99
2023-04-12T07:33:41.515Z,99.99
2023-04-12T07:34:40.035Z,99.99
2023-04-12T07:35:39.926Z,99.99
2023-04-12T07:36:39.845Z,99.99
2023-04-12T07:37:39.815Z,99.99
2023-04-12T07:38:39.821Z,99.99
2023-04-12T07:39:39.810Z,99.99
2023-04-12T07:40:39.813Z,99.99
2023-04-12T07:41:39.807Z,99.99
2023-04-12T07:42:39.813Z,99.99
2023-04-12T07:43:39.769Z,99.99
2023-04-12T07:44:39.803Z,99.99
2023-04-12T07:45:39.765Z,99.99
2023-04-12T07:46:39.749Z,99.99
2023-04-12T07:47:39.753Z,99.99
2023-04-12T07:48:39.728Z,99.99
2023-04-12T07:49:39.689Z,99.99
2023-04-12T07:50:39.696Z,99.99
2023-04-12T07:51:39.674Z,99.99
2023-04-12T07:52:39.676Z,99.99
2023-04-12T07:53:39.683Z,99.99
2023-04-12T07:54:39.654Z,99.99
2023-04-12T07:55:39.637Z,99.99
2023-04-12T07:56:39.651Z,99.99
2023-04-12T07:57:39.597Z,99.99
2023-04-12T07:58:39.668Z,99.99
2023-04-12T07:59:39.583Z,99.99
2023-04-12T08:00:39.583Z,99.99
2023-04-12T08:01:39.606Z,99.99
2023-04-12T08:02:39.770Z,99.99
2023-04-12T08:03:39.641Z,99.99
2023-04-12T08:04:39.544Z,99.99
2023-04-12T08:05:39.553Z,99.99
2023-04-12T08:06:39.523Z,99.99
2023-04-12T08:07:39.498Z,99.99
2023-04-12T08:08:39.543Z,99.99
2023-04-12T08:09:39.491Z,99.99
2023-04-12T08:10:39.491Z,99.99
2023-04-12T08:11:39.452Z,99.99
2023-04-12T08:12:39.457Z,99.99
2023-04-12T08:13:39.464Z,99.99
2023-04-12T08:14:40.867Z,99.99
2023-04-12T08:15:39.450Z,99.99
2023-04-12T08:16:39.413Z,99.99
2023-04-12T08:17:39.434Z,99.99
2023-04-12T08:18:39.395Z,99.99
2023-04-12T08:19:39.410Z,99.99
2023-04-12T08:20:39.369Z,99.99
2023-04-12T08:21:39.371Z,99.99
2023-04-12T08:22:39.348Z,99.99
2023-04-12T08:23:39.341Z,99.99
2023-04-12T08:24:39.328Z,99.99
2023-04-12T08:25:39.415Z,99.99
2023-04-12T08:26:39.323Z,99.99
2023-04-12T08:27:39.303Z,99.99
2023-04-12T08:28:39.956Z,99.99
2023-04-12T08:29:39.271Z,99.99
2023-04-12T08:30:39.262Z,99.99
2023-04-12T08:31:39.307Z,99.99
2023-04-12T08:32:39.256Z,99.99
2023-04-12T08:33:39.222Z,99.99
2023-04-12T08:34:39.253Z,99.99
2023-04-12T08:35:39.207Z,99.99
2023-04-12T08:36:39.199Z,99.99
2023-04-12T08:37:39.205Z,99.99
2023-04-12T08:38:45.436Z,99.99
2023-04-12T08:39:39.164Z,99.99
2023-04-12T08:40:39.161Z,99.99
2023-04-12T08:41:39.309Z,99.99
2023-04-12T08:42:39.137Z,99.99
2023-04-12T08:43:39.130Z,99.99
2023-04-12T08:44:39.108Z,99.99
2023-04-12T08:45:39.088Z,99.99
2023-04-12T08:46:39.113Z,99.99
2023-04-12T08:47:39.119Z,99.99
2023-04-12T08:48:39.090Z,99.99
2023-04-12T08:49:39.055Z,99.99
2023-04-12T08:50:39.088Z,99.99
2023-04-12T08:51:39.025Z,99.99
2023-04-12T08:52:39.027Z,99.99
2023-04-12T08:53:38.996Z,99.99
2023-04-12T08:54:39.016Z,99.99
2023-04-12T08:55:39.002Z,99.99
2023-04-12T08:56:39.022Z,99.99
2023-04-12T08:57:38.984Z,99.99
2023-04-12T08:58:38.996Z,99.99
2023-04-12T08:59:38.992Z,99.99
2023-04-12T09:00:38.958Z,99.99
2023-04-12T09:01:38.980Z,99.99
2023-04-12T09:02:39.133Z,99.99
2023-04-12T09:03:39.192Z,99.99
2023-04-12T09:04:38.934Z,99.99
2023-04-12T09:05:38.866Z,99.99
2023-04-12T09:06:38.872Z,99.99
2023-04-12T09:07:38.847Z,99.99
2023-04-12T09:08:38.873Z,99.99
2023-04-12T09:09:38.859Z,99.99
2023-04-12T09:10:38.854Z,99.99
2023-04-12T09:11:38.810Z,99.99
2023-04-12T09:12:38.830Z,99.99
2023-04-12T09:13:38.820Z,99.99
2023-04-12T09:14:38.810Z,99.99
2023-04-12T09:15:38.760Z,99.99
2023-04-12T09:16:38.856Z,99.99
2023-04-12T09:17:38.818Z,99.99
2023-04-12T09:18:38.749Z,99.99
2023-04-12T09:19:38.746Z,99.99
2023-04-12T09:20:38.736Z,99.99
2023-04-12T09:21:38.722Z,99.99
2023-04-12T09:22:38.707Z,99.99
2023-04-12T09:23:38.676Z,99.99
2023-04-12T09:24:38.673Z,99.99
2023-04-12T09:25:38.781Z,99.99
2023-04-12T09:26:38.668Z,99.99
2023-04-12T09:27:38.667Z,99.99
2023-04-12T09:28:38.650Z,99.99
2023-04-12T09:29:38.627Z,99.99
2023-04-12T09:30:38.636Z,99.99
2023-04-12T09:31:38.724Z,99.99
2023-04-12T09:32:38.652Z,99.99
2023-04-12T09:33:38.593Z,99.99
2023-04-12T09:34:38.601Z,99.99
2023-04-12T09:35:38.697Z,99.99
2023-04-12T09:36:38.595Z,99.99
2023-04-12T09:37:38.550Z,99.99
2023-04-12T09:38:38.528Z,99.99
2023-04-12T09:39:40.188Z,99.99
2023-04-12T09:40:38.515Z,99.99
2023-04-12T09:41:38.531Z,99.99
2023-04-12T09:42:38.528Z,99.99
2023-04-12T09:43:38.494Z,99.99
2023-04-12T09:44:38.475Z,99.99
2023-04-12T09:45:38.439Z,99.99
2023-04-12T09:46:38.578Z,99.99
2023-04-12T09:47:38.474Z,99.99
2023-04-12T09:48:38.422Z,99.99
2023-04-12T09:49:38.421Z,99.99
2023-04-12T09:50:38.422Z,99.99
2023-04-12T09:51:38.408Z,99.99
2023-04-12T09:52:38.462Z,99.99
2023-04-12T09:53:38.383Z,99.99
2023-04-12T09:54:38.367Z,99.99
2023-04-12T09:55:38.358Z,99.99
2023-04-12T09:56:38.346Z,99.99
2023-04-12T09:57:38.334Z,99.99
2023-04-12T09:58:38.322Z,99.99
2023-04-12T09:59:38.330Z,99.99
2023-04-12T10:00:38.312Z,99.99
2023-04-12T10:01:38.330Z,99.99
2023-04-12T10:02:38.422Z,99.99
2023-04-12T10:03:38.375Z,99.99
2023-04-12T10:04:38.391Z,99.99
2023-04-12T10:05:38.450Z,99.99
2023-04-12T10:06:38.240Z,99.99
2023-04-12T10:07:38.218Z,99.99
2023-04-12T10:08:38.205Z,99.99
2023-04-12T10:09:38.217Z,99.99
2023-04-12T10:10:38.171Z,99.99
2023-04-12T10:11:38.221Z,99.99
2023-04-12T10:12:38.200Z,99.99
2023-04-12T10:13:38.178Z,99.99
2023-04-12T10:14:38.219Z,99.99
2023-04-12T10:15:38.210Z,99.99
2023-04-12T10:16:38.157Z,99.99
2023-04-12T10:17:38.207Z,99.99
2023-04-12T10:18:38.097Z,99.99
2023-04-12T10:19:38.088Z,99.99
2023-04-12T10:20:38.058Z,99.99
2023-04-12T10:21:38.064Z,99.99
2023-04-12T10:22:38.062Z,99.99
2023-04-12T10:23:38.065Z,99.99
2023-04-12T10:24:38.022Z,99.99
2023-04-12T10:25:38.015Z,99.99
2023-04-12T10:26:38.004Z,99.99
2023-04-12T10:27:37.997Z,99.99
2023-04-12T10:28:37.986Z,99.99
2023-04-12T10:29:38.049Z,99.99
2023-04-12T10:30:37.963Z,99.99
2023-04-12T10:31:38.003Z,99.99
2023-04-12T10:32:37.941Z,99.99
2023-04-12T10:33:37.929Z,99.99
2023-04-12T10:34:37.922Z,99.99
2023-04-12T10:35:38.008Z,99.99
2023-04-12T10:36:37.917Z,99.99
2023-04-12T10:37:37.945Z,99.99
2023-04-12T10:38:37.866Z,99.99
2023-04-12T10:39:37.919Z,99.99
2023-04-12T10:40:37.887Z,99.99
2023-04-12T10:41:37.924Z,99.99
2023-04-12T10:42:37.841Z,99.99
2023-04-12T10:43:37.947Z,99.99
2023-04-12T10:44:37.803Z,99.99
2023-04-12T10:45:37.827Z,99.99
2023-04-12T10:46:37.926Z,99.99
2023-04-12T10:47:37.842Z,99.99
2023-04-12T10:48:37.810Z,99.99
2023-04-12T10:49:37.768Z,99.99
2023-04-12T10:50:37.780Z,99.99
2023-04-12T10:51:37.793Z,99.99
2023-04-12T10:52:37.772Z,99.99
2023-04-12T10:53:37.737Z,99.99
2023-04-12T10:54:37.726Z,99.99
2023-04-12T10:55:37.751Z,99.99
2023-04-12T10:56:37.725Z,99.99
2023-04-12T10:57:37.679Z,99.99
2023-04-12T10:58:37.705Z,99.99
2023-04-12T10:59:47.369Z,99.99
2023-04-12T11:00:37.711Z,99.99
2023-04-12T11:01:38.980Z,99.99
2023-04-12T11:02:37.799Z,99.99
2023-04-12T11:03:37.816Z,99.99
2023-04-12T11:04:37.696Z,99.99
2023-04-12T11:05:37.717Z,99.99
2023-04-12T11:06:37.580Z,99.99
2023-04-12T11:07:37.573Z,99.99
2023-04-12T11:08:37.557Z,99.99
2023-04-12T11:09:37.555Z,99.99
2023-04-12T11:10:37.512Z,99.99
2023-04-12T11:11:37.522Z,99.99
2023-04-12T11:12:37.540Z,99.99
2023-04-12T11:13:37.520Z,99.99
2023-04-12T11:14:37.489Z,99.99
2023-04-12T11:15:37.486Z,99.99
2023-04-12T11:16:37.496Z,99.99
2023-04-12T11:17:38.001Z,99.99
2023-04-12T11:18:37.464Z,99.99
2023-04-12T11:19:37.460Z,99.99
2023-04-12T11:20:37.448Z,99.99
2023-04-12T11:21:37.419Z,99.99
2023-04-12T11:22:37.409Z,99.99
2023-04-12T11:23:37.445Z,99.99
2023-04-12T11:24:37.377Z,99.99
2023-04-12T11:25:37.391Z,99.99
2023-04-12T11:26:37.352Z,99.99
2023-04-12T11:27:37.351Z,99.99
2023-04-12T11:28:37.330Z,99.99
2023-04-12T11:29:37.345Z,99.99
2023-04-12T11:30:37.671Z,99.99
2023-04-12T11:31:37.390Z,99.99
2023-04-12T11:32:37.350Z,99.99
2023-04-12T11:33:37.378Z,99.99
2023-04-12T11:34:37.274Z,99.99
2023-04-12T11:35:37.261Z,99.99
2023-04-12T11:36:37.230Z,99.99
2023-04-12T11:37:37.243Z,99.99
2023-04-12T11:38:37.212Z,99.99
2023-04-12T11:39:37.219Z,99.99
2023-04-12T11:40:37.252Z,99.99
2023-04-12T11:41:37.194Z,99.99
2023-04-12T11:42:37.175Z,99.99
2023-04-12T11:43:37.172Z,99.99
2023-04-12T11:44:54.516Z,99.99
2023-04-12T11:45:37.212Z,99.99
2023-04-12T11:46:37.133Z,99.99
2023-04-12T11:47:37.162Z,99.99
2023-04-12T11:48:37.115Z,99.99
2023-04-12T11:49:37.104Z,99.99
2023-04-12T11:50:37.121Z,99.99
2023-04-12T11:51:37.101Z,99.99
2023-04-12T11:52:37.096Z,99.99
2023-04-12T11:53:37.095Z,99.99
2023-04-12T11:54:37.045Z,99.99
2023-04-12T11:55:37.055Z,99.99
2023-04-12T11:56:37.062Z,99.99
2023-04-12T11:57:37.097Z,99.99
2023-04-12T11:58:37.043Z,99.99
2023-04-12T11:59:37.033Z,99.99
2023-04-12T12:00:36.974Z,99.99
2023-04-12T12:01:36.986Z,99.99
2023-04-12T12:02:46.003Z,99.99
2023-04-12T12:03:37.085Z,99.99
2023-04-12T12:04:37.363Z,99.99
2023-04-12T12:05:37.734Z,99.99
2023-04-12T12:06:37.423Z,99.99
2023-04-12T12:07:36.934Z,99.99
2023-04-12T12:08:36.884Z,99.99
2023-04-12T12:09:36.905Z,99.99
2023-04-12T12:10:46.825Z,99.99
2023-04-12T12:11:36.887Z,99.99
2023-04-12T12:12:36.838Z,99.99
2023-04-12T12:13:36.853Z,99.99
2023-04-12T12:14:36.825Z,99.99
2023-04-12T12:15:36.841Z,99.99
2023-04-12T12:16:36.827Z,99.99
2023-04-12T12:17:36.873Z,99.99
2023-04-12T12:18:36.780Z,99.99
2023-04-12T12:19:36.793Z,99.99
2023-04-12T12:20:36.752Z,99.99
2023-04-12T12:21:36.776Z,99.99
2023-04-12T12:22:36.782Z,99.99
2023-04-12T12:23:36.734Z,99.99
2023-04-12T12:24:40.488Z,99.99
2023-04-12T12:25:36.721Z,99.99
2023-04-12T12:26:36.711Z,99.99
2023-04-12T12:27:36.790Z,99.99
2023-04-12T12:28:36.710Z,99.99
2023-04-12T12:29:36.702Z,99.99
2023-04-12T12:30:36.658Z,99.99
2023-04-12T12:31:36.772Z,99.99
2023-04-12T12:32:37.008Z,99.99
2023-04-12T12:33:45.723Z,99.99
2023-04-12T12:34:36.645Z,99.99
2023-04-12T12:35:36.628Z,99.99
2023-04-12T12:36:36.896Z,99.99
2023-04-12T12:37:36.616Z,99.99
2023-04-12T12:38:37.647Z,99.99
2023-04-12T12:39:36.566Z,99.85
2023-04-12T12:40:36.546Z,99.99
2023-04-12T12:41:36.673Z,99.99
2023-04-12T12:42:36.577Z,99.75
2023-04-12T12:43:36.531Z,99.95
2023-04-12T12:44:37.825Z,99.99
2023-04-12T12:45:36.505Z,99.99
2023-04-12T12:46:51.659Z,99.85
2023-04-12T12:47:36.511Z,99.95
2023-04-12T12:48:36.565Z,99.99
2023-04-12T12:49:36.488Z,99.99
2023-04-12T12:50:36.432Z,99.99
2023-04-12T12:51:36.441Z,99.99
2023-04-12T12:52:36.438Z,99.99
2023-04-12T12:53:36.458Z,99.99
2023-04-12T12:54:40.266Z,99.99
2023-04-12T12:55:36.405Z,99.99
2023-04-12T12:56:36.364Z,99.99
2023-04-12T12:57:36.367Z,99.99
2023-04-12T12:59:36.390Z,99.99
2023-04-12T13:00:36.358Z,99.99
2023-04-12T13:01:36.391Z,99.99
2023-04-12T13:02:36.519Z,99.99
2023-04-12T13:03:36.533Z,99.99
2023-04-12T13:04:36.445Z,99.99
2023-04-12T13:05:36.301Z,99.99
2023-04-12T13:06:36.302Z,99.99
2023-04-12T13:07:36.267Z,99.99
2023-04-12T13:08:36.279Z,99.99
2023-04-12T13:09:36.275Z,99.99
2023-04-12T13:10:36.227Z,99.99
2023-04-12T13:11:36.231Z,99.99
2023-04-12T13:12:36.188Z,99.99
2023-04-12T13:13:36.190Z,99.99
2023-04-12T13:14:36.197Z,99.99
2023-04-12T13:15:36.180Z,99.99
2023-04-12T13:16:36.263Z,99.99
2023-04-12T13:17:36.190Z,99.99
2023-04-12T13:18:36.268Z,99.99
2023-04-12T13:19:36.139Z,99.99
2023-04-12T13:20:36.176Z,99.99
2023-04-12T13:21:36.104Z,99.99
2023-04-12T13:22:36.107Z,99.99
2023-04-12T13:23:36.092Z,99.99
2023-04-12T13:24:36.053Z,99.99
2023-04-12T13:25:36.179Z,99.99
2023-04-12T13:26:36.061Z,99.99
2023-04-12T13:27:36.091Z,99.99
2023-04-12T13:28:36.113Z,99.99
2023-04-12T13:29:36.034Z,99.99
2023-04-12T13:30:35.995Z,99.99
2023-04-12T13:31:36.065Z,99.99
2023-04-12T13:32:36.177Z,99.99
2023-04-12T13:33:35.979Z,99.99
2023-04-12T13:34:35.964Z,99.99
2023-04-12T13:35:35.949Z,99.99
2023-04-12T13:36:35.948Z,99.99
2023-04-12T13:37:35.949Z,99.99
2023-04-12T13:38:35.980Z,99.99
2023-04-12T13:39:35.910Z,99.99
2023-04-12T13:40:35.895Z,99.99
2023-04-12T13:41:35.888Z,99.99
2023-04-12T13:42:35.857Z,99.99
2023-04-12T13:43:35.875Z,99.99
2023-04-12T13:44:35.854Z,99.99
2023-04-12T13:45:35.883Z,99.99
2023-04-12T13:46:35.905Z,99.99
2023-04-12T13:47:35.875Z,99.99
2023-04-12T13:48:35.799Z,99.99
2023-04-12T13:49:35.829Z,99.99
2023-04-12T13:50:35.796Z,99.99
2023-04-12T13:51:35.835Z,99.99
2023-04-12T13:52:35.787Z,99.99
2023-04-12T13:53:35.811Z,99.99
2023-04-12T13:54:35.748Z,99.99
2023-04-12T13:55:35.741Z,99.99
2023-04-12T13:56:35.710Z,99.99
2023-04-12T13:57:35.767Z,99.99
2023-04-12T13:58:35.750Z,99.99
2023-04-12T13:59:35.701Z,99.99
2023-04-12T14:00:35.681Z,99.99
2023-04-12T14:01:35.742Z,99.99
2023-04-12T14:02:35.746Z,99.66
2023-04-12T14:03:35.710Z,99.56
2023-04-12T14:04:35.716Z,99.99
2023-04-12T14:05:35.639Z,99.99
2023-04-12T14:06:35.610Z,99.99
2023-04-12T14:07:35.609Z,99.99
2023-04-12T14:08:35.579Z,99.87
2023-04-12T14:09:35.648Z,99.87
2023-04-12T14:10:35.572Z,99.99
2023-04-12T14:11:35.568Z,99.36
2023-04-12T14:12:35.536Z,98.44
2023-04-12T14:13:35.557Z,98.75
2023-04-12T14:14:35.532Z,98.54
2023-04-12T14:15:35.549Z,97.83
2023-04-12T14:16:35.514Z,98.65
2023-04-12T14:17:35.579Z,98.75
2023-04-12T14:18:35.682Z,99.00
2023-04-12T14:19:35.505Z,99.00
2023-04-12T14:20:35.479Z,99.41
2023-04-12T14:21:35.449Z,99.30
2023-04-12T14:22:35.463Z,99.20
2023-04-12T14:23:35.502Z,99.30
2023-04-12T14:24:35.426Z,99.20
2023-04-12T14:25:35.422Z,99.51
2023-04-12T14:26:35.923Z,99.51
2023-04-12T14:27:35.392Z,99.20
2023-04-12T14:28:35.419Z,99.41
2023-04-12T14:29:35.356Z,99.10
2023-04-12T14:30:35.423Z,98.84
2023-04-12T14:31:35.437Z,98.94
2023-04-12T14:32:35.433Z,99.25
2023-04-12T14:33:35.334Z,99.04
2023-04-12T14:34:35.325Z,99.15
2023-04-12T14:35:35.299Z,98.54
2023-04-12T14:36:35.312Z,98.23
2023-04-12T14:37:35.310Z,98.74
2023-04-12T14:38:35.305Z,98.43
2023-04-12T14:39:35.243Z,98.58
2023-04-12T14:40:35.248Z,99.19
2023-04-12T14:41:35.231Z,99.29
2023-04-12T14:42:35.257Z,98.99
2023-04-12T14:43:35.203Z,98.48
2023-04-12T14:44:35.244Z,98.99
2023-04-12T14:45:35.191Z,98.48
2023-04-12T14:46:35.225Z,98.79
2023-04-12T14:47:35.172Z,98.99
2023-04-12T14:48:35.172Z,99.19
2023-04-12T14:49:35.154Z,98.58
2023-04-12T14:50:35.177Z,99.29
2023-04-12T14:51:35.161Z,99.60
2023-04-12T14:52:35.116Z,98.79
2023-04-12T14:53:35.122Z,98.99
2023-04-12T14:54:35.095Z,99.19
2023-04-12T14:55:35.123Z,99.80
2023-04-12T14:56:41.385Z,99.19
2023-04-12T14:57:35.061Z,99.70
2023-04-12T14:58:35.048Z,99.70
2023-04-12T14:59:35.141Z,99.91
2023-04-12T15:00:35.041Z,98.89
2023-04-12T15:01:35.050Z,98.79
2023-04-12T15:02:35.209Z,98.79
2023-04-12T15:03:35.155Z,98.18
2023-04-12T15:04:35.086Z,98.63
2023-04-12T15:05:34.969Z,99.09
2023-04-12T15:06:34.995Z,98.07
2023-04-12T15:07:34.959Z,97.87
2023-04-12T15:08:34.972Z,98.68
2023-04-12T15:09:34.924Z,98.58
2023-04-12T15:10:34.933Z,97.97
2023-04-12T15:11:34.929Z,98.07
2023-04-12T15:12:34.945Z,98.18
2023-04-12T15:13:35.224Z,97.87
2023-04-12T15:14:34.943Z,97.52
2023-04-12T15:15:34.854Z,98.23
2023-04-12T15:16:35.023Z,97.11
2023-04-12T15:17:35.578Z,97.16
2023-04-12T15:18:34.864Z,97.06
2023-04-12T15:19:34.811Z,98.03
2023-04-12T15:20:34.818Z,96.97
2023-04-12T15:21:34.803Z,96.52
2023-04-12T15:22:34.798Z,95.61
2023-04-12T15:23:34.784Z,96.52
2023-04-12T15:24:34.774Z,94.79
2023-04-12T15:25:34.742Z,95.20
2023-04-12T15:26:34.750Z,95.15
2023-04-12T15:27:34.743Z,94.95
2023-04-12T15:28:34.777Z,92.51
2023-04-12T15:29:34.724Z,94.13
2023-04-12T15:30:34.707Z,93.26
2023-04-12T15:31:34.710Z,92.35
2023-04-12T15:32:36.591Z,94.28
2023-04-12T15:33:34.747Z,94.63
2023-04-12T15:34:34.690Z,94.02
2023-04-12T15:35:34.680Z,94.63
2023-04-12T15:36:34.645Z,94.43
2023-04-12T15:37:34.756Z,93.51
2023-04-12T15:38:34.744Z,94.23
2023-04-12T15:39:34.674Z,93.31
2023-04-12T15:40:34.633Z,94.53
2023-04-12T15:41:34.581Z,94.32
2023-04-12T15:42:34.596Z,93.31
2023-04-12T15:43:34.584Z,94.02
2023-04-12T15:44:34.750Z,93.62
2023-04-12T15:45:34.604Z,93.71
2023-04-12T15:46:34.546Z,92.80
2023-04-12T15:47:34.533Z,94.32
2023-04-12T15:48:34.520Z,93.10
2023-04-12T15:49:35.846Z,94.17
2023-04-12T15:50:34.516Z,93.35
2023-04-12T15:51:34.468Z,93.66
2023-04-12T15:52:34.483Z,93.05
2023-04-12T15:53:34.449Z,94.07
2023-04-12T15:54:34.466Z,93.76
2023-04-12T15:55:34.442Z,92.54
2023-04-12T15:56:34.478Z,93.45
2023-04-12T15:57:34.404Z,92.58
2023-04-12T15:58:34.404Z,93.76
2023-04-12T15:59:34.388Z,92.79
2023-04-12T16:00:34.384Z,91.05
2023-04-12T16:01:34.387Z,91.66
2023-04-12T16:02:34.587Z,92.07
2023-04-12T16:03:34.517Z,92.38
2023-04-12T16:04:34.496Z,90.64
2023-04-12T16:05:34.346Z,93.40
2023-04-12T16:06:34.343Z,92.89
2023-04-12T16:07:34.321Z,91.01
2023-04-12T16:08:34.313Z,91.48
2023-04-12T16:09:34.345Z,91.68
2023-04-12T16:10:34.270Z,90.66
2023-04-12T16:11:34.281Z,91.17
2023-04-12T16:12:34.251Z,87.92
2023-04-12T16:13:34.229Z,88.63
2023-04-12T16:14:34.242Z,88.77
2023-04-12T16:15:34.229Z,88.67
2023-04-12T16:16:34.280Z,90.20
2023-04-12T16:17:34.213Z,89.48
2023-04-12T16:18:34.220Z,87.24
2023-04-12T16:19:34.155Z,89.28
2023-04-12T16:20:34.171Z,86.63
2023-04-12T16:21:34.135Z,86.33
2023-04-12T16:22:34.138Z,88.77
2023-04-12T16:23:34.126Z,86.94
2023-04-12T16:24:34.143Z,85.82
2023-04-12T16:25:34.097Z,86.74
2023-04-12T16:26:34.102Z,86.43
2023-04-12T16:27:34.071Z,86.33
2023-04-12T16:28:34.083Z,85.61
2023-04-12T16:29:34.072Z,84.50
2023-04-12T16:30:34.082Z,85.82
2023-04-12T16:31:34.060Z,86.33
2023-04-12T16:32:34.059Z,83.89
2023-04-12T16:33:34.042Z,83.27
2023-04-12T16:34:34.027Z,85.51
2023-04-12T16:35:34.014Z,82.56
2023-04-12T16:36:34.048Z,84.70
2023-04-12T16:37:33.981Z,83.89
2023-04-12T16:38:34.078Z,82.66
2023-04-12T16:39:33.968Z,83.58
2023-04-12T16:40:33.954Z,83.48
2023-04-12T16:41:33.974Z,82.97
2023-04-12T16:42:33.924Z,83.07
2023-04-12T16:43:33.923Z,83.98
2023-04-12T16:44:33.906Z,84.39
2023-04-12T16:45:33.888Z,83.27
2023-04-12T16:46:33.900Z,83.68
2023-04-12T16:47:33.945Z,81.95
2023-04-12T16:48:33.977Z,80.52
2023-04-12T16:49:33.843Z,81.65
2023-04-12T16:50:33.831Z,80.93
2023-04-12T16:51:36.752Z,81.13
2023-04-12T16:52:33.824Z,82.35
2023-04-12T16:53:33.845Z,81.85
2023-04-12T16:54:33.801Z,80.73
2023-04-12T16:55:33.775Z,79.50
2023-04-12T16:56:33.778Z,79.41
2023-04-12T16:57:33.747Z,82.46
2023-04-12T16:58:33.752Z,82.66
2023-04-12T16:59:33.750Z,81.54
2023-04-12T17:00:33.740Z,81.58
2023-04-12T17:01:33.704Z,78.22
2023-04-12T17:02:33.806Z,81.48
2023-04-12T17:03:33.792Z,82.80
2023-04-12T17:04:33.744Z,83.42
2023-04-12T17:05:33.713Z,83.62
2023-04-12T17:06:33.687Z,83.31
2023-04-12T17:07:33.680Z,82.19
2023-04-12T17:08:33.656Z,82.19
2023-04-12T17:09:33.639Z,81.93
2023-04-12T17:10:33.642Z,84.06
2023-04-12T17:11:33.590Z,83.45
2023-04-12T17:12:33.611Z,83.04
2023-04-12T17:13:33.589Z,81.72
2023-04-12T17:14:33.582Z,81.72
2023-04-12T17:15:33.587Z,82.43
2023-04-12T17:16:33.619Z,79.38
2023-04-12T17:17:33.595Z,81.31
2023-04-12T17:18:33.535Z,82.94
2023-04-12T17:19:33.561Z,80.02
2023-04-12T17:20:33.562Z,80.40
2023-04-12T17:21:33.482Z,80.29
2023-04-12T17:22:33.492Z,80.74
2023-04-12T17:23:33.500Z,80.84